Flight Number: EUR2016 Duration: 1:45
Departure: Barcelona Airport (LEBL) at 14:00 Distance: 592 Nm
Arrival: Munich Int'l (EDDM) at 15:45 Equipment: B737

Weather Information
Barcelona / Aeropuerto, Spain (LEBL) 41-17N 002-04E 6M Aug 17, 2018 - 05:00 PM EDT / 2018.08.17 2100 UTC
Wind: from the NNW (330 degrees) at 12 MPH (10 KT):0
Visibility: greater than 7 mile(s):0
Sky conditions: mostly clear Temperature: 69 F (21 C) Dew Point: 64 F (18 C) Relative Humidity: 82% Pressure (altimeter): 30.06 in. Hg (1018 hPa)
ob: LEBL 172100Z 33010KT 9999 FEW020 21/18 Q1018 NOSIG cycle: 21
Sunrise: 05:06 Sunset: 18:44 (UTC)

Munchen, Germany (EDDM) 48-21N 011-47E Aug 17, 2018 - 04:50 PM EDT / 2018.08.17 2050 UTC
Wind: from the E (090 degrees) at 3 MPH (3 KT):0
Visibility: greater than 7 mile(s):0 Temperature: 60 F (16 C) Dew Point: 57 F (14 C) Relative Humidity: 87% Pressure (altimeter): 30.03 in. Hg (1017 hPa)
ob: EDDM 172050Z 09003KT CAVOK 16/14 Q1017 NOSIG cycle: 21
Sunrise: 04:14 Sunset: 18:19 (UTC)

TAF:2018/08/17 18:27 TAF EDDM 171700Z 1718/1824 VRB03KT CAVOK BECMG 1718/1720 27005KT BECMG 1812/1815 33005KT PROB30 TEMPO 1815/1820 TSRA BKN050CB

Previous Pireps for this route
Date Aircraft Flight time Fuel used Landing rate On time
2012-09-17B73701.5911451-205No
2013-01-14B7371.2080000No
2013-04-08B73701.5716961-64No
2013-07-12B73701.5516516-645No
2013-07-28B7371.35115400No
2013-08-10B73701.466580-302No
2013-09-03B73701.5411400-760No
2014-04-10B73702.1712104-198No
2014-05-05B73701.5713189-402No
2014-06-07B7371.464000No
2014-07-28B73701.4310302-134No
2014-11-30B7371.4881050No
2015-02-08B73702.0311302-341No
2015-02-22B73702.1512937-138Charter
2015-02-27B7372.5878970No
2015-03-02B73702.0411227-108No
2015-03-03B73701.5710539-111No
2015-03-24B73701.5410165-35No
2015-04-01B7371.48135100No
2016-10-03A330-20001.5826954-151Charter
2016-11-14B73702.3212257-461No
2016-11-27B73703.0417026-280No
(pireps marked green are flown by you)

Route map